Time;durP1;ratioP1;P1;durP2;ratioP2;P2;SDS_P1;SDS_P2;PMS_P1;PMS_P2;Temp;Humidity;BMP_temperature;BMP_pressure;BME280_temperature;BME280_humidity;BME280_pressure;Samples;Min_cycle;Max_cycle;Signal;HPM_P1;HPM_P2
2023/10/19 00:00:56;;;;;;;21.85;18.75;;;9.10;99.90;;;;;;5005955;28;20046;-84
2023/10/19 00:03:26;;;;;;;24.10;19.08;;;9.20;99.90;;;;;;5004775;28;20110;-81
2023/10/19 00:05:52;;;;;;;23.30;18.60;;;9.10;99.90;;;;;;5004817;28;20127;-82
2023/10/19 00:08:21;;;;;;;23.80;19.35;;;9.10;99.90;;;;;;4990578;28;20048;-81
2023/10/19 00:13:30;;;;;;;24.90;18.95;;;9.20;99.90;;;;;;5098822;27;20053;-82
2023/10/19 00:15:57;;;;;;;24.27;19.40;;;9.10;99.90;;;;;;5102591;27;20038;-84
2023/10/19 00:18:24;;;;;;;25.13;20.08;;;9.20;99.90;;;;;;5111515;27;20041;-84
2023/10/19 00:23:37;;;;;;;24.43;19.80;;;9.20;99.90;;;;;;5004987;28;20065;-82
2023/10/19 00:26:15;;;;;;;24.42;20.70;;;9.20;99.90;;;;;;5109913;27;20102;-84
2023/10/19 00:28:40;;;;;;;25.13;19.73;;;9.20;99.90;;;;;;5002605;28;20509;-81
2023/10/19 00:31:09;;;;;;;25.58;20.67;;;9.10;99.90;;;;;;5004690;28;20054;-81
2023/10/19 00:33:38;;;;;;;25.10;20.50;;;9.20;99.90;;;;;;5002849;28;20045;-80
2023/10/19 00:36:08;;;;;;;24.52;20.60;;;9.20;99.90;;;;;;5001137;28;20075;-80
2023/10/19 00:39:14;;;;;;;28.27;21.88;;;9.20;99.90;;;;;;4996939;28;20089;-80
2023/10/19 00:41:29;;;;;;;25.20;20.83;;;9.20;99.90;;;;;;4997113;28;20501;-81
2023/10/19 00:44:11;;;;;;;28.00;21.10;;;9.20;99.90;;;;;;5006188;28;20038;-82
2023/10/19 00:49:09;;;;;;;23.92;20.77;;;9.20;99.90;;;;;;4998249;28;20133;-81
2023/10/19 00:54:10;;;;;;;25.73;21.38;;;9.10;99.90;;;;;;4997647;28;20410;-80
2023/10/19 00:56:37;;;;;;;29.48;22.98;;;9.10;99.90;;;;;;5002143;28;20050;-81
2023/10/19 00:59:14;;;;;;;31.17;21.20;;;9.10;99.90;;;;;;5005912;28;20041;-84
2023/10/19 01:01:45;;;;;;;25.27;20.90;;;9.10;99.90;;;;;;5111250;27;20379;-84
2023/10/19 01:04:15;;;;;;;28.23;22.95;;;9.10;99.90;;;;;;4992442;28;20064;-83
2023/10/19 01:06:44;;;;;;;26.02;20.98;;;9.10;99.90;;;;;;4994275;28;20488;-82
2023/10/19 01:09:14;;;;;;;31.52;23.02;;;9.10;99.90;;;;;;5000204;28;20040;-83
2023/10/19 01:11:45;;;;;;;28.20;22.40;;;9.10;99.90;;;;;;4995208;28;20128;-83
2023/10/19 01:14:27;;;;;;;29.98;21.67;;;9.00;99.90;;;;;;4993132;28;20059;-83
2023/10/19 01:16:56;;;;;;;27.77;23.00;;;9.10;99.90;;;;;;5001462;28;20065;-83
2023/10/19 01:19:23;;;;;;;27.85;22.67;;;9.10;99.90;;;;;;4992897;28;20081;-83
2023/10/19 01:21:53;;;;;;;27.10;22.73;;;9.10;99.90;;;;;;4988757;28;20139;-84
2023/10/19 01:24:40;;;;;;;29.02;22.80;;;9.10;99.90;;;;;;4989268;28;20104;-84
2023/10/19 01:27:08;;;;;;;28.50;22.08;;;9.10;99.90;;;;;;4989810;28;20046;-83
2023/10/19 01:29:37;;;;;;;27.75;22.33;;;9.10;99.90;;;;;;4997877;28;20081;-84
2023/10/19 01:32:11;;;;;;;26.98;22.30;;;9.00;99.90;;;;;;5007983;28;20121;-84
2023/10/19 01:34:37;;;;;;;29.67;23.60;;;9.00;99.90;;;;;;5008770;28;20101;-84
2023/10/19 01:37:06;;;;;;;26.30;22.13;;;9.10;99.90;;;;;;4996553;28;20046;-84
2023/10/19 01:39:35;;;;;;;27.50;23.17;;;9.00;99.90;;;;;;4993626;28;20046;-83
2023/10/19 01:42:01;;;;;;;29.17;23.30;;;9.10;99.90;;;;;;4990625;28;20118;-82
2023/10/19 01:44:27;;;;;;;28.80;24.20;;;9.00;99.90;;;;;;5008029;28;20073;-82
2023/10/19 01:46:53;;;;;;;28.35;22.35;;;9.00;99.90;;;;;;4998902;28;20521;-82
2023/10/19 01:49:28;;;;;;;28.13;23.35;;;9.00;99.90;;;;;;5110082;27;20121;-82
2023/10/19 01:51:54;;;;;;;28.75;23.20;;;9.00;99.90;;;;;;5010117;28;20519;-82
2023/10/19 01:54:24;;;;;;;31.80;25.23;;;9.00;99.90;;;;;;4995459;28;20045;-81
2023/10/19 01:56:55;;;;;;;32.17;23.98;;;9.00;99.90;;;;;;5002433;28;20046;-82
2023/10/19 01:59:24;;;;;;;29.20;23.33;;;9.00;99.90;;;;;;4997940;28;20465;-81
2023/10/19 02:01:51;;;;;;;30.05;25.15;;;9.00;99.90;;;;;;4996789;28;20042;-81
2023/10/19 02:04:17;;;;;;;29.15;23.83;;;9.00;99.90;;;;;;5001661;28;20045;-81
2023/10/19 02:06:46;;;;;;;27.10;22.90;;;9.00;99.90;;;;;;4988519;28;20513;-81
2023/10/19 02:11:41;;;;;;;29.65;23.75;;;9.00;99.90;;;;;;5102571;27;20564;-82
2023/10/19 02:14:14;;;;;;;27.42;21.75;;;9.00;99.90;;;;;;5103692;27;20049;-81
2023/10/19 02:16:52;;;;;;;28.73;23.15;;;9.00;99.90;;;;;;5077608;28;20145;-81
2023/10/19 02:19:19;;;;;;;28.58;23.45;;;9.00;99.90;;;;;;5000260;28;20041;-81
2023/10/19 02:21:48;;;;;;;24.52;21.65;;;9.00;99.90;;;;;;4994867;28;20125;-81
2023/10/19 02:24:14;;;;;;;25.33;21.48;;;9.00;99.90;;;;;;5001428;28;20052;-81
2023/10/19 02:26:41;;;;;;;27.15;21.98;;;9.00;99.90;;;;;;5004481;28;20045;-81
2023/10/19 02:29:09;;;;;;;26.85;21.65;;;9.00;99.90;;;;;;5007021;28;20080;-81
2023/10/19 02:31:37;;;;;;;27.45;21.67;;;9.00;99.90;;;;;;4988818;28;20058;-80
2023/10/19 02:34:04;;;;;;;25.70;20.67;;;9.00;99.90;;;;;;5005213;28;20053;-81
2023/10/19 02:36:31;;;;;;;27.73;22.05;;;9.10;99.90;;;;;;5096633;27;20504;-81
2023/10/19 02:38:58;;;;;;;26.17;22.33;;;9.10;99.90;;;;;;5007460;28;20050;-81
2023/10/19 02:41:26;;;;;;;26.83;21.05;;;9.10;99.90;;;;;;5102254;27;20381;-80
2023/10/19 02:44:19;;;;;;;24.75;20.92;;;9.00;99.90;;;;;;4999481;28;20042;-80
2023/10/19 02:46:45;;;;;;;25.52;21.25;;;9.10;99.90;;;;;;4999003;28;20046;-81
2023/10/19 02:49:22;;;;;;;24.73;20.90;;;9.10;99.90;;;;;;4987501;28;20064;-81
2023/10/19 02:51:49;;;;;;;25.00;19.40;;;9.10;99.90;;;;;;4992210;28;20057;-82
2023/10/19 02:54:21;;;;;;;23.90;20.05;;;9.10;99.90;;;;;;4998909;28;20133;-81
2023/10/19 02:56:49;;;;;;;25.40;19.88;;;9.10;99.90;;;;;;4988004;28;20049;-81
2023/10/19 02:59:16;;;;;;;24.08;19.90;;;9.10;99.90;;;;;;4990887;28;20420;-81
2023/10/19 03:01:45;;;;;;;21.50;19.15;;;9.10;99.90;;;;;;4990519;28;20062;-81
2023/10/19 03:04:15;;;;;;;22.35;19.33;;;9.10;99.90;;;;;;5002121;28;20046;-81
2023/10/19 03:06:41;;;;;;;23.02;19.42;;;9.20;99.90;;;;;;4988883;28;20053;-81
2023/10/19 03:09:28;;;;;;;24.33;21.00;;;9.20;99.90;;;;;;4995421;28;20450;-81
2023/10/19 03:11:59;;;;;;;;;;;9.20;99.90;;;;;;5000093;28;20115;-81
2023/10/19 03:14:25;;;;;;;21.83;18.33;;;9.20;99.90;;;;;;5004043;28;19961;-81
2023/10/19 03:16:51;;;;;;;24.58;20.25;;;9.20;99.90;;;;;;5103015;27;20073;-81
2023/10/19 03:19:17;;;;;;;24.20;19.50;;;9.20;99.90;;;;;;5102582;27;20131;-81
2023/10/19 03:21:43;;;;;;;23.88;19.92;;;9.10;99.90;;;;;;5003046;28;20077;-81
2023/10/19 03:24:14;;;;;;;25.42;20.38;;;9.20;99.90;;;;;;5099806;27;20043;-81
2023/10/19 03:26:49;;;;;;;24.48;20.55;;;9.20;99.90;;;;;;4992992;28;20121;-81
2023/10/19 03:29:18;;;;;;;25.90;21.10;;;9.20;99.90;;;;;;5008864;28;20051;-81
2023/10/19 03:31:43;;;;;;;24.90;21.33;;;9.20;99.90;;;;;;4993957;28;20041;-86
2023/10/19 03:34:16;;;;;;;25.52;21.27;;;9.20;99.90;;;;;;4985173;28;20485;-83
2023/10/19 03:36:42;;;;;;;26.80;21.63;;;9.20;99.90;;;;;;4988366;28;20679;-84
2023/10/19 03:39:17;;;;;;;25.05;22.23;;;9.20;99.90;;;;;;4998469;28;20042;-83
2023/10/19 03:41:44;;;;;;;23.42;20.58;;;9.30;99.90;;;;;;5003469;28;20061;-83
2023/10/19 03:44:20;;;;;;;25.45;20.65;;;9.20;99.90;;;;;;5006411;28;20125;-83
2023/10/19 03:47:04;;;;;;;24.58;19.98;;;9.30;99.90;;;;;;4998048;28;20478;-82
2023/10/19 03:49:34;;;;;;;25.67;21.60;;;9.30;99.90;;;;;;5013215;28;20061;-84
2023/10/19 03:52:19;;;;;;;25.42;21.48;;;9.20;99.90;;;;;;5002108;28;20181;-82
2023/10/19 03:54:47;;;;;;;27.15;20.38;;;9.20;99.90;;;;;;5011188;28;20049;-83
2023/10/19 03:57:19;;;;;;;23.15;19.85;;;9.20;99.90;;;;;;5007702;28;20488;-82
2023/10/19 03:59:46;;;;;;;23.80;20.60;;;9.30;99.90;;;;;;4995653;28;20103;-84
2023/10/19 04:02:13;;;;;;;24.50;20.67;;;9.30;99.90;;;;;;4998234;28;20078;-83
2023/10/19 04:04:43;;;;;;;23.60;19.27;;;9.30;99.90;;;;;;4997158;28;20137;-82
2023/10/19 04:07:14;;;;;;;22.85;19.40;;;9.30;99.90;;;;;;4999592;28;20093;-83
2023/10/19 04:10:29;;;;;;;24.55;20.83;;;9.30;99.90;;;;;;5000667;28;20091;-82
2023/10/19 04:12:30;;;;;;;22.23;18.05;;;9.30;99.90;;;;;;5000917;28;20042;-83
2023/10/19 04:14:57;;;;;;;21.58;18.30;;;9.30;99.90;;;;;;5099636;27;20141;-83
2023/10/19 04:17:23;;;;;;;19.58;17.15;;;9.30;99.90;;;;;;5000934;28;20637;-82
2023/10/19 04:19:51;;;;;;;22.77;17.42;;;9.30;99.90;;;;;;5004944;28;20050;-84
2023/10/19 04:22:22;;;;;;;;;;;9.30;99.90;;;;;;5011001;28;20468;-85
2023/10/19 04:24:48;;;;;;;20.30;16.40;;;9.40;99.90;;;;;;5002096;28;19925;-83
2023/10/19 04:27:14;;;;;;;20.65;17.10;;;9.30;99.90;;;;;;5008578;28;20756;-86
2023/10/19 04:29:43;;;;;;;20.65;17.45;;;9.40;99.90;;;;;;4998070;28;20465;-81
2023/10/19 04:32:09;;;;;;;20.85;17.40;;;9.40;99.90;;;;;;5022977;28;20113;-82
2023/10/19 04:34:39;;;;;;;19.03;16.67;;;9.40;99.90;;;;;;4993469;28;20038;-81
2023/10/19 04:37:04;;;;;;;20.10;16.90;;;9.40;99.90;;;;;;4993172;28;20073;-84
2023/10/19 04:39:30;;;;;;;19.40;15.77;;;9.40;99.90;;;;;;4991661;28;20469;-84
2023/10/19 04:41:56;;;;;;;19.20;16.90;;;9.40;99.90;;;;;;5003022;28;20141;-82
2023/10/19 04:44:22;;;;;;;17.75;15.77;;;9.40;99.90;;;;;;5008092;28;20054;-81
2023/10/19 04:46:48;;;;;;;21.77;17.50;;;9.40;99.90;;;;;;4995266;28;20045;-83
2023/10/19 04:49:16;;;;;;;20.88;16.60;;;9.40;99.90;;;;;;5001911;28;20045;-80
2023/10/19 04:51:43;;;;;;;;;;;9.50;99.90;;;;;;5006682;28;20056;-81
2023/10/19 04:54:09;;;;;;;19.08;15.75;;;9.40;99.90;;;;;;5097976;27;19925;-81
2023/10/19 04:56:36;;;;;;;17.13;14.70;;;9.50;99.90;;;;;;5002844;28;20062;-81
2023/10/19 04:59:02;;;;;;;17.13;15.30;;;9.50;99.90;;;;;;4990371;28;20045;-81
2023/10/19 05:01:28;;;;;;;17.73;15.53;;;9.50;99.90;;;;;;5102740;27;20466;-82
2023/10/19 05:03:54;;;;;;;19.02;15.90;;;9.50;99.90;;;;;;5009477;28;20041;-81
2023/10/19 05:06:22;;;;;;;17.73;15.60;;;9.50;99.90;;;;;;5003439;28;20145;-81
2023/10/19 05:08:48;;;;;;;18.98;16.20;;;9.50;99.90;;;;;;5000211;28;20110;-80
2023/10/19 05:11:13;;;;;;;19.00;15.93;;;9.40;99.90;;;;;;4997754;28;20046;-81
2023/10/19 05:13:39;;;;;;;18.38;16.35;;;9.50;99.90;;;;;;4988555;28;20091;-83
2023/10/19 05:16:05;;;;;;;17.17;15.15;;;9.40;99.90;;;;;;4992899;28;20045;-83
2023/10/19 05:18:31;;;;;;;18.98;16.75;;;9.40;99.90;;;;;;4994189;28;20055;-82
2023/10/19 05:20:57;;;;;;;18.75;16.58;;;9.40;99.90;;;;;;4992796;28;20065;-82
2023/10/19 05:23:27;;;;;;;18.90;16.17;;;9.40;99.90;;;;;;5004010;28;20393;-82
2023/10/19 05:25:59;;;;;;;18.08;15.57;;;9.40;99.90;;;;;;4999782;28;20046;-82
2023/10/19 05:28:25;;;;;;;18.00;15.75;;;9.40;99.90;;;;;;5007037;28;20050;-83
2023/10/19 05:30:51;;;;;;;16.88;15.05;;;9.40;99.90;;;;;;4994222;28;20056;-83
2023/10/19 05:33:20;;;;;;;17.60;15.55;;;9.40;99.90;;;;;;4992149;28;20060;-83
2023/10/19 05:35:47;;;;;;;16.38;14.57;;;9.40;99.90;;;;;;4996351;28;20054;-83
2023/10/19 05:38:13;;;;;;;16.55;14.75;;;9.40;99.90;;;;;;5019256;28;20063;-83
2023/10/19 05:40:38;;;;;;;17.15;15.35;;;9.50;99.90;;;;;;4999228;28;20076;-86
2023/10/19 05:43:05;;;;;;;17.67;15.70;;;9.50;99.90;;;;;;5003636;28;20045;-82
2023/10/19 05:45:32;;;;;;;18.43;16.43;;;9.40;99.90;;;;;;4992544;28;20141;-86
2023/10/19 05:47:58;;;;;;;18.10;15.90;;;9.50;99.90;;;;;;5000030;28;20053;-81
2023/10/19 05:50:24;;;;;;;16.30;14.60;;;9.40;99.90;;;;;;5091943;27;20409;-81
2023/10/19 05:52:51;;;;;;;17.13;14.85;;;9.50;99.90;;;;;;4993090;28;20042;-81
2023/10/19 05:55:21;;;;;;;17.38;15.57;;;9.50;99.90;;;;;;5000920;28;20053;-81
2023/10/19 05:57:46;;;;;;;17.48;15.57;;;9.50;99.90;;;;;;5002105;28;20054;-80
2023/10/19 06:00:16;;;;;;;17.27;15.48;;;9.50;99.90;;;;;;5100153;27;20054;-81
2023/10/19 06:02:45;;;;;;;16.90;15.10;;;9.60;99.90;;;;;;5001354;28;20051;-80
2023/10/19 06:05:16;;;;;;;16.50;14.80;;;9.50;99.90;;;;;;5005536;28;20048;-80
2023/10/19 06:07:46;;;;;;;16.48;14.20;;;9.50;99.90;;;;;;5008073;28;20051;-80
2023/10/19 06:10:18;;;;;;;16.77;14.98;;;9.50;99.90;;;;;;5095007;27;20049;-80
2023/10/19 06:12:49;;;;;;;17.60;15.48;;;9.50;99.90;;;;;;5015219;28;20519;-80
2023/10/19 06:15:16;;;;;;;18.40;16.27;;;9.50;99.90;;;;;;5015326;28;20056;-80
2023/10/19 06:17:43;;;;;;;18.35;15.68;;;9.60;99.90;;;;;;4995253;28;20053;-80
2023/10/19 06:20:19;;;;;;;16.55;14.73;;;9.60;99.90;;;;;;4991131;28;20568;-81
2023/10/19 06:23:04;;;;;;;17.27;15.48;;;9.60;99.90;;;;;;5002653;28;20136;-80
2023/10/19 06:25:30;;;;;;;17.50;15.18;;;9.60;99.90;;;;;;4996768;28;20046;-81
2023/10/19 06:27:59;;;;;;;16.58;14.82;;;9.60;99.90;;;;;;4991185;28;20122;-81
2023/10/19 06:30:26;;;;;;;16.20;14.50;;;9.60;99.90;;;;;;4996320;28;20109;-80
2023/10/19 06:32:54;;;;;;;17.63;15.73;;;9.60;99.90;;;;;;5012230;28;20041;-80
2023/10/19 06:35:22;;;;;;;17.30;15.50;;;9.60;99.90;;;;;;5008318;28;20656;-81
2023/10/19 06:37:48;;;;;;;17.00;15.20;;;9.60;99.90;;;;;;5008292;28;20080;-81
2023/10/19 06:40:16;;;;;;;17.50;15.30;;;9.60;99.90;;;;;;5004904;28;20530;-80
2023/10/19 06:42:43;;;;;;;18.85;15.18;;;9.60;99.90;;;;;;5109540;27;20096;-80
2023/10/19 06:45:13;;;;;;;17.45;14.32;;;9.70;99.90;;;;;;4995537;28;20081;-80
2023/10/19 06:47:49;;;;;;;18.08;15.43;;;9.70;99.90;;;;;;5003025;28;20051;-81
2023/10/19 06:50:17;;;;;;;15.75;14.05;;;9.70;99.90;;;;;;5100824;27;20128;-80
2023/10/19 06:52:44;;;;;;;16.45;14.73;;;9.70;99.90;;;;;;4999347;28;20046;-80
2023/10/19 06:55:13;;;;;;;18.25;16.25;;;9.70;99.90;;;;;;5005767;28;20098;-80
2023/10/19 06:57:48;;;;;;;18.05;16.10;;;9.80;99.90;;;;;;5006785;28;20442;-81
2023/10/19 07:00:19;;;;;;;17.35;15.52;;;9.70;99.90;;;;;;5111304;27;20431;-80
2023/10/19 07:02:55;;;;;;;17.80;15.90;;;9.80;99.90;;;;;;4995062;28;20054;-80
2023/10/19 07:05:25;;;;;;;16.00;14.30;;;9.80;99.90;;;;;;5002532;28;20084;-80
2023/10/19 07:07:54;;;;;;;24.30;17.08;;;9.80;99.90;;;;;;5007649;28;20041;-79
2023/10/19 07:10:20;;;;;;;20.05;17.88;;;9.80;99.90;;;;;;5102653;27;20485;-76
2023/10/19 07:12:48;;;;;;;20.45;17.17;;;9.80;99.90;;;;;;4999853;28;20049;-74
2023/10/19 07:15:14;;;;;;;17.70;15.63;;;9.80;99.90;;;;;;5007801;28;20089;-76
2023/10/19 07:17:43;;;;;;;20.73;16.70;;;9.90;99.90;;;;;;5007887;28;20053;-75
2023/10/19 07:22:57;;;;;;;19.10;17.10;;;9.90;99.90;;;;;;5010307;28;20133;-76
2023/10/19 07:25:25;;;;;;;21.02;15.80;;;9.90;99.90;;;;;;5006214;28;20485;-77
2023/10/19 07:27:52;;;;;;;18.65;16.67;;;9.90;99.90;;;;;;5005552;28;20038;-75
2023/10/19 07:30:21;;;;;;;19.55;16.15;;;9.90;99.90;;;;;;4997177;28;20469;-76
2023/10/19 07:32:54;;;;;;;17.30;15.40;;;9.90;99.90;;;;;;5009911;28;20169;-76
2023/10/19 07:35:22;;;;;;;17.52;15.48;;;10.00;99.90;;;;;;5012939;28;20038;-76
2023/10/19 07:37:50;;;;;;;18.02;16.08;;;9.90;99.90;;;;;;4991058;28;20099;-77
2023/10/19 07:40:17;;;;;;;19.88;16.38;;;10.00;99.90;;;;;;5004217;28;20505;-78
2023/10/19 07:42:44;;;;;;;18.70;16.77;;;10.00;99.90;;;;;;5004612;28;20050;-78
2023/10/19 07:45:11;;;;;;;19.50;17.38;;;10.00;99.90;;;;;;4992381;28;20041;-75
2023/10/19 07:47:40;;;;;;;;;;;10.00;99.90;;;;;;5009338;28;20085;-77
2023/10/19 07:50:11;;;;;;;20.48;16.85;;;10.00;99.90;;;;;;4995746;28;21564;-77
2023/10/19 07:52:38;;;;;;;20.35;17.75;;;10.00;99.90;;;;;;5019801;28;20472;-77
2023/10/19 07:55:06;;;;;;;18.48;16.42;;;10.00;99.90;;;;;;5001612;28;20498;-76
2023/10/19 07:57:34;;;;;;;22.23;19.00;;;10.00;99.90;;;;;;4989194;28;20034;-76
2023/10/19 07:59:59;;;;;;;;;;;10.10;99.90;;;;;;4988943;28;20042;-76
2023/10/19 08:02:25;;;;;;;20.73;16.58;;;10.10;99.90;;;;;;4989724;28;20011;-76
2023/10/19 08:04:52;;;;;;;18.45;16.42;;;10.00;99.90;;;;;;5006099;28;20046;-76
2023/10/19 08:07:17;;;;;;;19.30;16.27;;;10.10;99.90;;;;;;4988034;28;20126;-76
2023/10/19 08:09:43;;;;;;;19.50;17.48;;;10.10;99.90;;;;;;5005214;28;20125;-76
2023/10/19 08:12:09;;;;;;;21.35;18.20;;;10.10;99.90;;;;;;5008980;28;20056;-77
2023/10/19 08:14:36;;;;;;;22.70;18.48;;;10.10;99.90;;;;;;4996305;28;20068;-77
2023/10/19 08:17:03;;;;;;;20.73;18.45;;;10.10;99.90;;;;;;5001159;28;20056;-81
2023/10/19 08:19:31;;;;;;;22.73;19.57;;;10.10;99.90;;;;;;5009549;28;20048;-80
2023/10/19 08:21:57;;;;;;;24.63;19.90;;;10.20;99.90;;;;;;5013541;28;20352;-77
2023/10/19 08:24:23;;;;;;;21.17;18.75;;;10.20;99.90;;;;;;5019119;28;20056;-77
2023/10/19 08:26:50;;;;;;;25.98;20.83;;;10.20;99.90;;;;;;5002794;28;20073;-76
2023/10/19 08:29:16;;;;;;;24.90;22.00;;;10.20;99.90;;;;;;4992147;28;20192;-76
2023/10/19 08:31:44;;;;;;;27.42;22.65;;;10.10;99.90;;;;;;4998862;28;20056;-76
2023/10/19 08:34:11;;;;;;;30.02;23.52;;;10.30;99.90;;;;;;4989655;28;20042;-76
2023/10/19 08:36:40;;;;;;;27.95;22.83;;;10.30;99.90;;;;;;5005809;28;20046;-75
2023/10/19 08:39:07;;;;;;;27.73;22.73;;;10.30;99.90;;;;;;4998006;28;20054;-75
2023/10/19 08:41:34;;;;;;;27.27;22.55;;;10.30;99.90;;;;;;4993858;28;20034;-76
2023/10/19 08:44:02;;;;;;;25.95;22.42;;;10.30;99.90;;;;;;5006975;28;20129;-76
2023/10/19 08:46:28;;;;;;;25.27;20.95;;;10.40;99.90;;;;;;5003265;28;20045;-75
2023/10/19 08:48:56;;;;;;;27.02;22.48;;;10.40;99.90;;;;;;4989690;28;20439;-74
2023/10/19 08:51:24;;;;;;;27.02;22.33;;;10.50;99.90;;;;;;4999208;28;20061;-74
2023/10/19 08:53:53;;;;;;;27.00;22.58;;;10.50;99.90;;;;;;5104696;27;20222;-80
2023/10/19 08:56:23;;;;;;;29.58;23.05;;;10.50;99.90;;;;;;5004368;28;20084;-76
2023/10/19 08:58:51;;;;;;;29.10;23.20;;;10.50;99.90;;;;;;5003283;28;20552;-78
2023/10/19 09:01:19;;;;;;;26.55;22.67;;;10.50;99.90;;;;;;4997733;28;20077;-76
2023/10/19 09:03:46;;;;;;;27.65;22.08;;;10.50;99.90;;;;;;5001209;28;20046;-77
2023/10/19 09:06:12;;;;;;;31.48;24.92;;;10.50;99.90;;;;;;5004765;28;20053;-76
2023/10/19 09:08:39;;;;;;;26.63;21.65;;;10.60;99.90;;;;;;5009119;28;20571;-77
2023/10/19 09:11:11;;;;;;;26.85;22.27;;;10.60;99.90;;;;;;4996956;28;20128;-85
2023/10/19 09:13:48;;;;;;;29.00;22.77;;;10.60;99.90;;;;;;5005448;28;20046;-80
2023/10/19 09:16:15;;;;;;;31.15;24.05;;;10.70;99.90;;;;;;4988974;28;20125;-78
2023/10/19 09:18:41;;;;;;;29.65;23.33;;;10.70;99.90;;;;;;4988637;28;20393;-78
2023/10/19 09:21:07;;;;;;;28.65;23.15;;;10.70;99.90;;;;;;5010370;28;20041;-75
2023/10/19 09:23:34;;;;;;;27.02;23.17;;;10.70;99.90;;;;;;5005301;28;20508;-75
2023/10/19 09:26:03;;;;;;;29.23;24.23;;;10.70;99.90;;;;;;5017829;28;20045;-76
2023/10/19 09:28:29;;;;;;;27.70;24.60;;;10.80;99.90;;;;;;4999706;28;20116;-84
2023/10/19 09:30:55;;;;;;;25.80;22.88;;;10.80;99.90;;;;;;5006189;28;20069;-85
2023/10/19 09:33:24;;;;;;;29.08;23.60;;;10.80;99.90;;;;;;4991525;28;20507;-77
2023/10/19 09:35:53;;;;;;;27.05;24.23;;;10.90;99.90;;;;;;4994667;28;20124;-73
2023/10/19 09:38:24;;;;;;;29.73;24.08;;;10.90;99.90;;;;;;5010273;28;20419;-82
2023/10/19 09:40:52;;;;;;;29.02;22.92;;;10.90;99.90;;;;;;4997485;28;20050;-82
2023/10/19 09:43:38;;;;;;;29.50;23.88;;;11.00;99.90;;;;;;5009853;28;20076;-83
2023/10/19 09:46:08;;;;;;;29.13;25.10;;;11.00;99.90;;;;;;4999579;28;20045;-81
2023/10/19 09:48:42;;;;;;;29.63;26.52;;;11.00;99.90;;;;;;5014176;28;20080;-82
2023/10/19 09:51:09;;;;;;;31.88;26.35;;;11.00;99.90;;;;;;4987417;28;20704;-81
2023/10/19 09:53:36;;;;;;;32.95;26.58;;;11.10;99.90;;;;;;4987140;28;20061;-79
2023/10/19 09:56:06;;;;;;;28.90;25.88;;;11.10;99.90;;;;;;4999492;28;20432;-75
2023/10/19 09:58:37;;;;;;;29.80;26.77;;;11.10;99.90;;;;;;4994286;28;20065;-76
2023/10/19 10:01:07;;;;;;;29.42;26.33;;;11.20;99.90;;;;;;5011527;28;20426;-76
2023/10/19 10:03:53;;;;;;;30.33;27.20;;;11.20;99.90;;;;;;4989996;28;20058;-74
2023/10/19 10:06:30;;;;;;;30.67;26.42;;;11.20;99.90;;;;;;5005260;28;20092;-75
2023/10/19 10:08:58;;;;;;;29.65;26.55;;;11.30;99.90;;;;;;5004911;28;20050;-77
2023/10/19 10:11:28;;;;;;;32.38;29.05;;;11.30;99.90;;;;;;4987010;28;20046;-74
2023/10/19 10:13:56;;;;;;;31.92;28.25;;;11.30;99.90;;;;;;5014710;28;20418;-76
2023/10/19 10:16:26;;;;;;;35.60;30.80;;;11.30;99.90;;;;;;4991188;28;20505;-73
2023/10/19 10:18:59;;;;;;;30.65;27.35;;;11.30;99.90;;;;;;5092122;28;20137;-74
2023/10/19 10:21:27;;;;;;;28.58;25.80;;;11.40;99.90;;;;;;4996003;28;20052;-77
2023/10/19 10:23:54;;;;;;;27.98;25.02;;;11.40;99.90;;;;;;5007972;28;20073;-75
2023/10/19 10:26:26;;;;;;;29.60;26.77;;;11.40;99.90;;;;;;4985598;28;20451;-74
2023/10/19 10:29:14;;;;;;;31.92;28.63;;;11.40;99.90;;;;;;4987759;28;20051;-75
2023/10/19 10:31:44;;;;;;;32.83;29.38;;;11.50;99.90;;;;;;5013085;28;20041;-75
2023/10/19 10:34:30;;;;;;;32.60;29.15;;;11.50;99.90;;;;;;5007892;28;20045;-75
2023/10/19 10:37:03;;;;;;;31.87;26.93;;;11.50;99.90;;;;;;4990701;28;20077;-74
2023/10/19 10:39:34;;;;;;;31.73;28.48;;;11.50;99.90;;;;;;4990523;28;20698;-75
2023/10/19 10:42:02;;;;;;;31.27;27.98;;;11.60;99.90;;;;;;5002098;28;20050;-78
2023/10/19 10:44:45;;;;;;;31.92;28.70;;;11.60;99.90;;;;;;4986840;28;20042;-75
2023/10/19 10:47:16;;;;;;;31.25;27.52;;;11.60;99.90;;;;;;4987132;28;20121;-78
2023/10/19 10:49:53;;;;;;;32.38;27.77;;;11.60;99.90;;;;;;4990568;28;20050;-73
2023/10/19 10:52:24;;;;;;;;;;;11.60;99.90;;;;;;4995327;28;20121;-77
2023/10/19 10:54:49;;;;;;;27.42;24.25;;;11.60;99.90;;;;;;5008257;28;19925;-74
2023/10/19 10:57:16;;;;;;;27.85;25.05;;;11.60;99.90;;;;;;4990418;28;20191;-75
2023/10/19 10:59:41;;;;;;;31.88;26.33;;;11.60;99.90;;;;;;5091690;27;20051;-75
2023/10/19 11:02:21;;;;;;;28.27;25.55;;;11.60;99.90;;;;;;5000973;28;20053;-77
2023/10/19 11:04:47;;;;;;;30.50;27.27;;;11.70;99.90;;;;;;4990446;28;20493;-77
2023/10/19 11:07:20;;;;;;;29.17;26.13;;;11.60;99.90;;;;;;4990811;28;20053;-77
2023/10/19 11:09:47;;;;;;;27.98;25.30;;;11.60;99.90;;;;;;5007614;28;22012;-74
2023/10/19 11:12:15;;;;;;;28.30;25.35;;;11.60;99.90;;;;;;4997033;28;20077;-77
2023/10/19 11:14:55;;;;;;;28.85;26.02;;;11.70;99.90;;;;;;5007651;28;20586;-76
2023/10/19 11:17:30;;;;;;;28.73;25.80;;;11.60;99.90;;;;;;4986675;28;20717;-74
2023/10/19 11:19:57;;;;;;;28.50;25.52;;;11.70;99.90;;;;;;5003599;28;20036;-74
2023/10/19 11:22:26;;;;;;;26.35;23.65;;;11.60;99.90;;;;;;4998164;28;20050;-75
2023/10/19 11:24:56;;;;;;;27.80;24.98;;;11.60;99.90;;;;;;4991986;28;20046;-74
2023/10/19 11:27:27;;;;;;;28.00;25.27;;;11.70;99.90;;;;;;4991118;28;20045;-76
2023/10/19 11:29:58;;;;;;;29.98;27.13;;;11.70;99.90;;;;;;5008053;28;20052;-76
2023/10/19 11:32:35;;;;;;;29.55;26.60;;;11.70;99.90;;;;;;5091631;28;20133;-77
2023/10/19 11:35:01;;;;;;;27.58;24.75;;;11.70;99.90;;;;;;5008706;28;20042;-74
2023/10/19 11:37:27;;;;;;;35.20;31.65;;;11.70;99.90;;;;;;5003289;28;20619;-78
2023/10/19 11:39:52;;;;;;;31.05;28.08;;;11.70;99.90;;;;;;5006202;28;20046;-75
2023/10/19 11:42:18;;;;;;;40.63;36.90;;;11.70;99.90;;;;;;5003674;28;20038;-82
2023/10/19 11:44:45;;;;;;;35.60;32.33;;;11.70;99.90;;;;;;4996475;28;20126;-79
2023/10/19 11:47:10;;;;;;;30.40;27.40;;;11.80;99.90;;;;;;4989504;28;20509;-75
2023/10/19 11:49:37;;;;;;;31.38;28.27;;;11.80;99.90;;;;;;4997026;28;20061;-77
2023/10/19 11:52:07;;;;;;;29.95;26.98;;;11.80;99.90;;;;;;4993997;28;20074;-74
2023/10/19 11:54:34;;;;;;;30.80;27.75;;;11.90;99.90;;;;;;4990588;28;20086;-74
2023/10/19 11:56:59;;;;;;;29.70;26.75;;;12.00;99.90;;;;;;4988711;28;20595;-74
2023/10/19 11:59:26;;;;;;;30.20;27.30;;;12.00;99.90;;;;;;4994691;28;20061;-74
2023/10/19 12:01:52;;;;;;;28.40;25.52;;;12.20;99.90;;;;;;4990281;28;20600;-74
2023/10/19 12:04:18;;;;;;;27.73;24.98;;;12.20;99.90;;;;;;4994066;28;20042;-75
2023/10/19 12:06:46;;;;;;;28.05;25.05;;;12.30;99.90;;;;;;4993377;28;20121;-75
2023/10/19 12:09:14;;;;;;;30.55;27.35;;;12.40;99.90;;;;;;5000896;28;20051;-75
2023/10/19 12:11:41;;;;;;;32.95;29.02;;;12.30;99.90;;;;;;4998891;28;20442;-73
2023/10/19 12:14:11;;;;;;;32.88;28.88;;;12.40;99.90;;;;;;5004429;28;20113;-74
2023/10/19 12:16:39;;;;;;;32.80;28.60;;;12.50;99.90;;;;;;5008585;28;20088;-74
2023/10/19 12:19:05;;;;;;;31.48;28.08;;;12.50;99.90;;;;;;5006318;28;20046;-74
2023/10/19 12:21:31;;;;;;;33.30;27.95;;;12.50;99.90;;;;;;5012258;28;20082;-74
2023/10/19 12:23:59;;;;;;;34.47;28.90;;;12.50;99.90;;;;;;5009660;28;20085;-74
2023/10/19 12:26:25;;;;;;;31.10;27.73;;;12.50;99.90;;;;;;5009501;28;20099;-74
2023/10/19 12:28:50;;;;;;;34.17;29.42;;;12.50;99.90;;;;;;5003812;28;20077;-75
2023/10/19 12:31:18;;;;;;;31.75;28.13;;;12.50;99.90;;;;;;5108931;27;20513;-74
2023/10/19 12:33:44;;;;;;;;;;;12.50;99.90;;;;;;5009881;28;20091;-74
2023/10/19 12:38:55;;;;;;;30.65;27.35;;;12.70;99.90;;;;;;5003441;28;20065;-75
2023/10/19 12:41:21;;;;;;;30.70;27.60;;;12.80;99.90;;;;;;5010378;28;20066;-75
2023/10/19 12:43:47;;;;;;;30.77;27.47;;;12.90;99.90;;;;;;4998401;28;20050;-75
2023/10/19 12:46:16;;;;;;;29.25;26.15;;;12.90;99.90;;;;;;5093112;27;20065;-74
2023/10/19 12:48:43;;;;;;;30.65;27.48;;;13.00;99.90;;;;;;4995828;28;20076;-74
2023/10/19 12:51:11;;;;;;;29.80;26.75;;;13.10;99.90;;;;;;5016546;28;20114;-74
2023/10/19 12:53:39;;;;;;;27.70;24.85;;;13.20;99.90;;;;;;5024933;28;20053;-73
2023/10/19 12:56:05;;;;;;;29.63;26.58;;;13.20;99.90;;;;;;5013026;28;20094;-76
2023/10/19 12:58:32;;;;;;;30.48;27.27;;;13.20;99.90;;;;;;5012049;28;20450;-76
2023/10/19 13:00:58;;;;;;;31.00;27.15;;;13.20;99.90;;;;;;5112585;27;20044;-75
2023/10/19 13:03:27;;;;;;;28.13;25.17;;;13.20;99.90;;;;;;5010341;28;20197;-76